Time;durP1;ratioP1;P1;durP2;ratioP2;P2;SDS_P1;SDS_P2;PMS_P1;PMS_P2;Temp;Humidity;BMP_temperature;BMP_pressure;BME280_temperature;BME280_humidity;BME280_pressure;Samples;Min_cycle;Max_cycle;Signal;HPM_P1;HPM_P2
2022/05/05 00:01:33;;;;;;;16.05;10.80;;;16.00;99.90;;;;;;5011824;28;20056;-63
2022/05/05 00:04:00;;;;;;;13.07;11.68;;;15.80;99.90;;;;;;5013336;28;20506;-64
2022/05/05 00:06:26;;;;;;;14.05;12.23;;;15.80;99.90;;;;;;5013736;28;20022;-63
2022/05/05 00:08:53;;;;;;;16.45;12.60;;;15.70;99.90;;;;;;5013430;28;20026;-64
2022/05/05 00:16:47;;;;;;;15.70;11.88;;;15.70;99.90;;;;;;5013409;28;20033;-64
2022/05/05 00:19:13;;;;;;;13.90;11.75;;;15.80;99.90;;;;;;5013028;28;20030;-63
2022/05/05 00:21:39;;;;;;;13.23;11.82;;;15.70;99.90;;;;;;5013372;28;20048;-65
2022/05/05 00:24:06;;;;;;;13.45;11.50;;;15.70;99.90;;;;;;5011455;28;20030;-65
2022/05/05 00:26:32;;;;;;;13.48;11.02;;;15.70;99.90;;;;;;5013142;28;20044;-64
2022/05/05 00:28:58;;;;;;;14.40;12.50;;;15.70;99.90;;;;;;5013470;28;20044;-63
2022/05/05 00:31:24;;;;;;;14.95;11.85;;;15.60;99.90;;;;;;5013035;28;20391;-63
2022/05/05 00:33:49;;;;;;;17.20;13.25;;;15.50;99.90;;;;;;5013812;28;20101;-64
2022/05/05 00:36:15;;;;;;;13.27;11.85;;;15.50;99.90;;;;;;5014484;28;20075;-66
2022/05/05 00:38:41;;;;;;;14.40;12.05;;;15.70;99.90;;;;;;4997602;28;20376;-64
2022/05/05 00:41:08;;;;;;;18.30;13.55;;;15.70;99.90;;;;;;5012650;28;20048;-63
2022/05/05 00:43:34;;;;;;;15.60;11.93;;;15.70;99.90;;;;;;5013123;28;20137;-64
2022/05/05 00:46:01;;;;;;;16.42;12.95;;;15.80;99.90;;;;;;5012755;28;20026;-74
2022/05/05 00:48:28;;;;;;;15.27;12.35;;;15.60;99.90;;;;;;5012001;28;20471;-64
2022/05/05 00:50:54;;;;;;;15.65;12.55;;;15.60;99.90;;;;;;5011854;28;20402;-64
2022/05/05 00:53:19;;;;;;;14.55;11.45;;;15.50;99.90;;;;;;4995269;28;20030;-64
2022/05/05 00:55:46;;;;;;;15.82;12.48;;;15.50;99.90;;;;;;5013281;28;20041;-64
2022/05/05 00:58:14;;;;;;;14.90;12.57;;;15.50;99.90;;;;;;5013614;28;20040;-65
2022/05/05 01:00:40;;;;;;;14.07;11.95;;;15.50;99.90;;;;;;5014556;28;20061;-63
2022/05/05 01:03:09;;;;;;;16.25;11.75;;;15.50;99.90;;;;;;5012131;28;20026;-63
2022/05/05 01:05:38;;;;;;;16.70;12.15;;;15.50;99.90;;;;;;5011960;28;20045;-63
2022/05/05 01:08:04;;;;;;;16.80;12.35;;;15.50;99.90;;;;;;5012733;28;20060;-63
2022/05/05 01:10:30;;;;;;;14.48;12.07;;;15.50;99.90;;;;;;5013181;28;20034;-64
2022/05/05 01:12:56;;;;;;;17.77;12.05;;;15.50;99.90;;;;;;5015747;28;20022;-63
2022/05/05 01:15:22;;;;;;;15.38;12.00;;;15.40;99.90;;;;;;5015050;28;20450;-65
2022/05/05 01:17:48;;;;;;;15.57;12.27;;;15.30;99.90;;;;;;5015756;28;20024;-64
2022/05/05 01:20:16;;;;;;;16.67;12.50;;;15.30;99.90;;;;;;5016264;28;20030;-64
2022/05/05 01:22:42;;;;;;;15.27;12.57;;;15.30;99.90;;;;;;5016521;28;20479;-62
2022/05/05 01:30:40;;;;;;;13.70;12.35;;;15.30;99.90;;;;;;5016293;28;20529;-64
2022/05/05 01:33:19;;;;;;;15.02;11.88;;;15.40;99.90;;;;;;5015914;28;20475;-64
2022/05/05 01:35:47;;;;;;;18.02;12.25;;;15.50;99.90;;;;;;5015421;28;20034;-63
2022/05/05 01:38:15;;;;;;;13.88;11.80;;;15.40;99.90;;;;;;5015663;28;20026;-64
2022/05/05 01:40:41;;;;;;;14.05;11.90;;;15.40;99.90;;;;;;5015268;28;20056;-64
2022/05/05 01:43:08;;;;;;;14.77;12.82;;;15.50;99.90;;;;;;5015974;28;20029;-63
2022/05/05 01:45:34;;;;;;;21.05;13.82;;;15.50;99.90;;;;;;5015944;28;20030;-63
2022/05/05 01:48:00;;;;;;;16.25;13.55;;;15.50;99.90;;;;;;5016721;28;20026;-64
2022/05/05 01:50:26;;;;;;;17.13;14.30;;;15.40;99.90;;;;;;5016613;28;20041;-68
2022/05/05 01:52:53;;;;;;;16.35;12.57;;;15.30;99.90;;;;;;5017216;28;20034;-67
2022/05/05 01:55:20;;;;;;;15.27;12.07;;;15.30;99.90;;;;;;5016313;28;20029;-64
2022/05/05 01:57:45;;;;;;;18.10;13.23;;;15.40;99.90;;;;;;5015866;28;20045;-63
2022/05/05 02:00:11;;;;;;;17.95;13.65;;;15.30;99.90;;;;;;5015520;28;20030;-63
2022/05/05 02:02:37;;;;;;;18.10;14.45;;;15.20;99.90;;;;;;5015026;28;20056;-63
2022/05/05 02:05:03;;;;;;;15.20;13.35;;;15.30;99.90;;;;;;5015730;28;20451;-63
2022/05/05 02:07:29;;;;;;;18.85;13.02;;;15.30;99.90;;;;;;5013783;28;20030;-64
2022/05/05 02:09:55;;;;;;;16.92;13.20;;;15.20;99.90;;;;;;5015809;28;20129;-64
2022/05/05 02:12:20;;;;;;;16.45;13.27;;;15.30;99.90;;;;;;5015208;28;20029;-63
2022/05/05 02:14:46;;;;;;;17.80;13.35;;;15.30;99.90;;;;;;5015791;28;20474;-63
2022/05/05 02:17:11;;;;;;;15.43;13.20;;;15.30;99.90;;;;;;5013934;28;20494;-63
2022/05/05 02:19:37;;;;;;;16.17;12.75;;;15.30;99.90;;;;;;5015402;28;20109;-63
2022/05/05 02:22:04;;;;;;;18.90;13.40;;;15.20;99.90;;;;;;5015597;28;20117;-63
2022/05/05 02:24:29;;;;;;;20.27;14.77;;;15.10;99.90;;;;;;5014447;28;20026;-63
2022/05/05 02:26:55;;;;;;;15.38;12.88;;;15.20;99.90;;;;;;5015734;28;20033;-63
2022/05/05 02:29:20;;;;;;;16.42;13.30;;;15.20;99.90;;;;;;5015220;28;20041;-64
2022/05/05 02:31:46;;;;;;;16.95;13.23;;;15.10;99.90;;;;;;5014667;28;20053;-64
2022/05/05 02:34:11;;;;;;;16.23;12.63;;;15.00;99.90;;;;;;5015635;28;20521;-65
2022/05/05 02:39:22;;;;;;;14.98;11.30;;;15.10;99.90;;;;;;5015131;28;20645;-63
2022/05/05 02:41:48;;;;;;;13.73;11.02;;;15.10;99.90;;;;;;5015631;28;20076;-64
2022/05/05 02:44:14;;;;;;;14.65;11.50;;;15.20;99.90;;;;;;5013711;28;20061;-63
2022/05/05 02:46:40;;;;;;;22.52;10.55;;;15.30;99.90;;;;;;5015412;28;20072;-67
2022/05/05 02:49:05;;;;;;;15.88;10.45;;;15.20;99.90;;;;;;5015176;28;20041;-65
2022/05/05 02:51:31;;;;;;;13.18;9.88;;;15.30;99.90;;;;;;5015182;28;20026;-63
2022/05/05 02:56:41;;;;;;;21.55;8.88;;;15.30;99.90;;;;;;5015470;28;20033;-63
2022/05/05 02:59:06;;;;;;;15.40;8.73;;;15.30;99.90;;;;;;5013511;28;20030;-64
2022/05/05 03:01:32;;;;;;;13.48;8.55;;;15.30;99.90;;;;;;5015702;28;20030;-64
2022/05/05 03:03:58;;;;;;;12.70;8.75;;;15.30;99.90;;;;;;5015029;28;20026;-62
2022/05/05 03:06:24;;;;;;;13.18;8.80;;;15.30;99.90;;;;;;5013434;28;20069;-64
2022/05/05 03:08:49;;;;;;;13.93;8.93;;;15.20;99.90;;;;;;5015863;28;20109;-64
2022/05/05 03:11:15;;;;;;;11.20;8.00;;;15.20;99.90;;;;;;5014256;28;20028;-64
2022/05/05 03:13:41;;;;;;;12.07;8.95;;;15.10;99.90;;;;;;5015821;28;20057;-66
2022/05/05 03:16:06;;;;;;;14.30;9.52;;;15.10;99.90;;;;;;5015526;28;20037;-63
2022/05/05 03:18:32;;;;;;;15.40;8.88;;;15.10;99.90;;;;;;5014149;28;20037;-63
2022/05/05 03:20:58;;;;;;;11.60;7.90;;;15.00;99.90;;;;;;5014420;28;20030;-63
2022/05/05 03:23:23;;;;;;;16.67;8.90;;;15.00;99.90;;;;;;5012673;28;20030;-63
2022/05/05 03:25:49;;;;;;;15.15;9.00;;;15.00;99.90;;;;;;5013216;28;20379;-63
2022/05/05 03:28:14;;;;;;;15.02;8.73;;;15.00;99.90;;;;;;5013162;28;20045;-63
2022/05/05 03:30:40;;;;;;;12.93;8.52;;;15.00;99.90;;;;;;5014546;28;20116;-63
2022/05/05 03:33:07;;;;;;;12.05;8.00;;;15.00;99.90;;;;;;5014616;28;20046;-68
2022/05/05 03:35:33;;;;;;;19.23;8.15;;;15.10;99.90;;;;;;5012788;28;20105;-64
2022/05/05 03:37:59;;;;;;;14.93;7.63;;;15.10;99.90;;;;;;5014053;28;20080;-67
2022/05/05 03:40:25;;;;;;;11.10;7.75;;;15.10;99.90;;;;;;5014464;28;20061;-64
2022/05/05 03:42:50;;;;;;;12.18;7.15;;;15.10;99.90;;;;;;5013768;28;20084;-62
2022/05/05 03:45:16;;;;;;;14.63;7.43;;;15.10;99.90;;;;;;5013587;28;20073;-69
2022/05/05 03:47:42;;;;;;;12.55;7.57;;;15.10;99.90;;;;;;5013723;28;20065;-64
2022/05/05 03:50:08;;;;;;;9.02;6.40;;;15.10;99.90;;;;;;5015005;28;20034;-68
2022/05/05 03:52:34;;;;;;;12.77;7.85;;;15.10;99.90;;;;;;5014524;28;20113;-65
2022/05/05 03:55:00;;;;;;;10.60;7.07;;;15.00;99.90;;;;;;5014906;28;20060;-65
2022/05/05 03:57:25;;;;;;;11.90;7.85;;;15.00;99.90;;;;;;5014244;28;20026;-65
2022/05/05 03:59:51;;;;;;;11.38;7.90;;;15.00;99.90;;;;;;5014346;28;20402;-63
2022/05/05 04:02:17;;;;;;;10.57;7.93;;;15.00;99.90;;;;;;5013698;28;20038;-63
2022/05/05 04:04:42;;;;;;;10.65;7.20;;;15.00;99.90;;;;;;5014502;28;20029;-64
2022/05/05 04:07:08;;;;;;;11.63;7.97;;;15.00;99.90;;;;;;5013270;28;20502;-64
2022/05/05 04:09:34;;;;;;;10.70;7.30;;;15.00;99.90;;;;;;5013352;28;20033;-64
2022/05/05 04:11:59;;;;;;;12.45;7.07;;;15.00;99.90;;;;;;5013602;28;20026;-71
2022/05/05 04:14:25;;;;;;;9.88;7.03;;;14.90;99.90;;;;;;5013814;28;20356;-66
2022/05/05 04:16:51;;;;;;;15.00;7.75;;;14.80;99.90;;;;;;5015341;28;20048;-65
2022/05/05 04:19:17;;;;;;;12.18;7.90;;;14.80;99.90;;;;;;5014788;28;20094;-71
2022/05/05 04:21:42;;;;;;;13.32;8.05;;;14.70;99.90;;;;;;5014966;28;20026;-65
2022/05/05 04:24:08;;;;;;;12.55;7.80;;;14.60;99.90;;;;;;5014375;28;20434;-64
2022/05/05 04:26:34;;;;;;;13.00;8.02;;;14.50;99.90;;;;;;5013898;28;20355;-65
2022/05/05 04:29:01;;;;;;;12.18;8.18;;;14.40;99.90;;;;;;5014316;28;20026;-63
2022/05/05 04:31:31;;;;;;;12.95;8.43;;;14.40;99.90;;;;;;5013519;28;20113;-64
2022/05/05 04:33:57;;;;;;;10.30;7.75;;;14.40;99.90;;;;;;5012186;28;20049;-63
2022/05/05 04:36:22;;;;;;;16.45;7.88;;;14.50;99.90;;;;;;5013626;28;20033;-63
2022/05/05 04:38:48;;;;;;;13.18;7.90;;;14.40;99.90;;;;;;5014207;28;20025;-65
2022/05/05 04:41:14;;;;;;;12.27;8.50;;;14.30;99.90;;;;;;5011831;28;20482;-71
2022/05/05 04:43:40;;;;;;;12.73;8.27;;;14.30;99.90;;;;;;5012002;28;20121;-64
2022/05/05 04:46:06;;;;;;;13.65;7.97;;;14.20;99.90;;;;;;5013041;28;20025;-68
2022/05/05 04:48:31;;;;;;;11.57;7.70;;;14.20;99.90;;;;;;5012413;28;20436;-64
2022/05/05 04:50:57;;;;;;;11.80;8.25;;;14.20;99.90;;;;;;5013184;28;20096;-63
2022/05/05 04:53:22;;;;;;;8.77;7.20;;;14.20;99.90;;;;;;5011241;28;20029;-63
2022/05/05 04:55:48;;;;;;;13.20;8.70;;;14.20;99.90;;;;;;5013153;28;20022;-63
2022/05/05 04:58:14;;;;;;;15.60;8.52;;;14.20;99.90;;;;;;5013118;28;20026;-63
2022/05/05 05:00:39;;;;;;;12.55;9.55;;;14.30;99.90;;;;;;5011078;28;20142;-64
2022/05/05 05:03:32;;;;;;;13.88;8.68;;;14.40;99.90;;;;;;5012937;28;20134;-63
2022/05/05 05:05:51;;;;;;;13.82;9.02;;;14.30;99.90;;;;;;5013230;28;20029;-63
2022/05/05 05:08:16;;;;;;;13.70;7.65;;;14.40;99.90;;;;;;5012581;28;20487;-67
2022/05/05 05:10:43;;;;;;;15.05;8.70;;;14.40;99.90;;;;;;5009664;28;20148;-63
2022/05/05 05:13:08;;;;;;;12.50;8.02;;;14.40;99.90;;;;;;5009431;28;20068;-64
2022/05/05 05:18:10;;;;;;;16.92;8.05;;;14.50;99.90;;;;;;4452096;22;20133;-65
2022/05/05 05:20:35;;;;;;;16.90;9.57;;;14.50;99.90;;;;;;5007423;28;20122;-65
2022/05/05 05:23:01;;;;;;;16.70;9.05;;;14.50;99.90;;;;;;5009248;28;20257;-65
2022/05/05 05:25:26;;;;;;;13.45;8.30;;;14.60;99.90;;;;;;5009141;28;20132;-65
2022/05/05 05:27:52;;;;;;;17.60;9.70;;;14.60;99.90;;;;;;5008838;28;20022;-64
2022/05/05 05:30:19;;;;;;;12.50;7.97;;;14.60;99.90;;;;;;5007427;28;20030;-65
2022/05/05 05:32:45;;;;;;;12.55;8.10;;;14.50;99.90;;;;;;5008651;28;20531;-64
2022/05/05 05:35:10;;;;;;;13.27;8.25;;;14.60;99.90;;;;;;5008997;28;20503;-66
2022/05/05 05:37:36;;;;;;;14.75;8.00;;;14.70;99.90;;;;;;5009545;28;20030;-65
2022/05/05 05:40:02;;;;;;;13.57;8.73;;;14.70;99.90;;;;;;5005906;28;20172;-65
2022/05/05 05:42:27;;;;;;;13.32;8.05;;;14.70;99.90;;;;;;5007114;28;20022;-65
2022/05/05 05:44:53;;;;;;;13.63;8.48;;;14.70;99.90;;;;;;5005856;28;20030;-65
2022/05/05 05:47:19;;;;;;;11.18;7.90;;;14.70;99.90;;;;;;5008874;28;20091;-65
2022/05/05 05:49:44;;;;;;;16.58;8.45;;;14.80;99.90;;;;;;5006402;28;20384;-65
2022/05/05 05:52:10;;;;;;;19.77;8.25;;;14.70;99.90;;;;;;5008933;28;20033;-66
2022/05/05 05:54:35;;;;;;;14.18;8.80;;;14.80;99.90;;;;;;5010432;28;20116;-67
2022/05/05 05:57:01;;;;;;;13.88;8.55;;;14.80;99.90;;;;;;4999358;28;20029;-65
2022/05/05 05:59:27;;;;;;;11.55;7.88;;;14.80;99.90;;;;;;5000485;28;20070;-65
2022/05/05 06:04:36;;;;;;;14.23;8.00;;;14.80;99.90;;;;;;4994191;28;20555;-66
2022/05/05 06:07:02;;;;;;;18.30;8.60;;;14.80;99.90;;;;;;4992000;28;20312;-65
2022/05/05 06:09:28;;;;;;;13.45;6.85;;;14.80;99.90;;;;;;5002771;28;20085;-67
2022/05/05 06:11:54;;;;;;;12.27;7.60;;;14.90;99.90;;;;;;5011097;28;20034;-65
2022/05/05 06:14:19;;;;;;;17.23;7.78;;;14.90;99.90;;;;;;5011773;28;20419;-65
2022/05/05 06:16:45;;;;;;;12.90;7.38;;;14.70;99.90;;;;;;5011153;28;20030;-66
2022/05/05 06:19:10;;;;;;;9.07;6.78;;;14.70;99.90;;;;;;5011296;28;20207;-66
2022/05/05 06:21:36;;;;;;;15.23;8.20;;;14.70;99.90;;;;;;5009978;28;20048;-65
2022/05/05 06:24:03;;;;;;;16.88;8.32;;;14.70;99.90;;;;;;5008238;28;20029;-66
2022/05/05 06:26:29;;;;;;;11.25;7.35;;;14.70;99.90;;;;;;5007270;28;20176;-64
2022/05/05 06:28:55;;;;;;;9.60;6.72;;;14.80;99.90;;;;;;4999925;28;20109;-64
2022/05/05 06:31:21;;;;;;;15.60;8.23;;;14.90;99.90;;;;;;5004633;28;20033;-67
2022/05/05 06:33:49;;;;;;;13.65;7.22;;;15.00;99.90;;;;;;5007651;28;20108;-67
2022/05/05 06:36:15;;;;;;;12.13;7.03;;;15.10;99.90;;;;;;5010944;28;20056;-64
2022/05/05 06:38:41;;;;;;;13.80;7.68;;;15.00;99.90;;;;;;5011621;28;20096;-64
2022/05/05 06:41:08;;;;;;;21.73;7.93;;;15.00;99.90;;;;;;5008533;28;20061;-65
2022/05/05 06:43:34;;;;;;;13.30;8.18;;;15.00;99.90;;;;;;5010120;28;20034;-66
2022/05/05 06:46:00;;;;;;;10.43;7.13;;;15.10;99.90;;;;;;5009647;28;20161;-65
2022/05/05 06:48:26;;;;;;;14.38;7.20;;;15.30;99.90;;;;;;5005985;28;20109;-68
2022/05/05 06:50:52;;;;;;;16.85;7.78;;;15.40;99.90;;;;;;5016598;28;20042;-67
2022/05/05 06:53:18;;;;;;;14.05;7.43;;;15.50;99.90;;;;;;5012764;28;20034;-67
2022/05/05 06:55:44;;;;;;;11.23;7.20;;;15.60;99.90;;;;;;5011157;28;20030;-68
2022/05/05 06:58:09;;;;;;;17.42;5.90;;;15.60;99.90;;;;;;5011223;28;20450;-68
2022/05/05 07:03:20;;;;;;;9.60;6.35;;;16.70;99.90;;;;;;5012747;28;20033;-66
2022/05/05 07:05:45;;;;;;;11.93;6.95;;;17.00;99.90;;;;;;5010358;28;20462;-67
2022/05/05 07:08:11;;;;;;;13.57;7.53;;;17.00;99.90;;;;;;5012700;28;20049;-66
2022/05/05 07:10:55;;;;;;;11.05;7.03;;;17.00;99.90;;;;;;5007215;28;20052;-65
2022/05/05 07:13:25;;;;;;;12.48;5.90;;;17.10;99.90;;;;;;5006491;28;20034;-64
2022/05/05 07:15:51;;;;;;;12.93;6.40;;;17.20;99.90;;;;;;5008872;28;20541;-66
2022/05/05 07:18:17;;;;;;;8.70;6.35;;;17.00;99.90;;;;;;5011418;28;20022;-67
2022/05/05 07:20:45;;;;;;;13.25;6.00;;;17.10;99.90;;;;;;5010642;28;20084;-66
2022/05/05 07:23:14;;;;;;;13.82;7.47;;;17.00;99.90;;;;;;5005773;28;20084;-66
2022/05/05 07:25:43;;;;;;;7.43;5.93;;;16.60;99.90;;;;;;5004159;28;20018;-66
2022/05/05 07:28:09;;;;;;;11.32;6.35;;;16.40;99.90;;;;;;5006253;28;20026;-65
2022/05/05 07:30:36;;;;;;;8.73;6.35;;;16.20;99.90;;;;;;5009029;28;20095;-67
2022/05/05 07:33:02;;;;;;;10.88;6.70;;;16.40;99.90;;;;;;5006502;28;20117;-66
2022/05/05 07:35:28;;;;;;;12.57;6.47;;;16.50;99.90;;;;;;4992520;28;20494;-66
2022/05/05 07:37:54;;;;;;;10.23;6.43;;;16.70;99.90;;;;;;5009514;28;20042;-65
2022/05/05 07:40:19;;;;;;;9.00;6.13;;;16.40;99.90;;;;;;5009859;28;20435;-65
2022/05/05 07:42:46;;;;;;;21.75;6.57;;;16.20;99.90;;;;;;5009974;28;20041;-74
2022/05/05 07:45:11;;;;;;;20.17;7.38;;;16.30;99.90;;;;;;5012116;28;20486;-70
2022/05/05 07:47:37;;;;;;;11.80;6.07;;;16.30;99.90;;;;;;5009757;28;20036;-65
2022/05/05 07:50:04;;;;;;;13.02;6.65;;;16.40;99.90;;;;;;5010679;28;20033;-67
2022/05/05 07:52:30;;;;;;;11.80;6.72;;;16.50;99.90;;;;;;5012159;28;20363;-67
2022/05/05 07:54:56;;;;;;;9.40;5.90;;;16.60;99.90;;;;;;5011121;28;20057;-66
2022/05/05 07:57:22;;;;;;;31.52;7.78;;;16.60;99.90;;;;;;5008893;28;20429;-65
2022/05/05 07:59:48;;;;;;;20.35;8.60;;;16.70;99.90;;;;;;5010953;28;20490;-67
2022/05/05 08:02:15;;;;;;;11.27;6.70;;;16.50;99.90;;;;;;5010100;28;20026;-67
2022/05/05 08:04:42;;;;;;;10.60;6.43;;;16.50;99.90;;;;;;5009084;28;20376;-66
2022/05/05 08:07:08;;;;;;;10.65;5.72;;;16.40;99.90;;;;;;5010999;28;20030;-66
2022/05/05 08:09:34;;;;;;;15.38;6.57;;;16.80;99.90;;;;;;5011030;28;20339;-66
2022/05/05 08:12:00;;;;;;;12.07;5.65;;;16.90;99.90;;;;;;5008749;28;20033;-68
2022/05/05 08:14:26;;;;;;;9.43;5.75;;;17.00;99.90;;;;;;5005795;28;20399;-67
2022/05/05 08:16:53;;;;;;;10.00;6.15;;;16.70;99.90;;;;;;4990813;28;20030;-66
2022/05/05 08:19:20;;;;;;;9.73;6.10;;;16.50;99.90;;;;;;4990667;28;20126;-66
2022/05/05 08:21:46;;;;;;;15.48;7.18;;;16.30;99.90;;;;;;4990010;28;20018;-68
2022/05/05 08:29:40;;;;;;;18.15;7.85;;;16.20;99.90;;;;;;4990764;28;20165;-66
2022/05/05 08:32:06;;;;;;;16.17;6.72;;;16.10;99.90;;;;;;5003927;28;20066;-67
2022/05/05 08:34:31;;;;;;;23.40;7.18;;;16.20;99.90;;;;;;5009777;28;20092;-64
2022/05/05 08:36:57;;;;;;;15.02;7.10;;;16.10;99.90;;;;;;5010146;28;20400;-65
2022/05/05 08:39:22;;;;;;;11.70;7.65;;;16.00;99.90;;;;;;5011589;28;20040;-66
2022/05/05 08:41:49;;;;;;;14.55;7.45;;;16.00;99.90;;;;;;5009536;28;20086;-67
2022/05/05 08:44:14;;;;;;;12.93;7.20;;;16.00;99.90;;;;;;5009661;28;20101;-66
2022/05/05 08:46:40;;;;;;;14.02;7.35;;;16.00;99.90;;;;;;5010927;28;20045;-65
2022/05/05 08:49:08;;;;;;;15.00;7.80;;;16.10;99.90;;;;;;5008845;28;20037;-66
2022/05/05 08:51:42;;;;;;;11.20;7.40;;;16.30;99.90;;;;;;4993089;28;20034;-66
2022/05/05 08:54:16;;;;;;;16.15;8.68;;;16.40;99.90;;;;;;5005029;28;20038;-67
2022/05/05 08:56:53;;;;;;;16.00;8.13;;;16.60;99.90;;;;;;5003775;28;20125;-65
2022/05/05 08:59:21;;;;;;;17.48;7.95;;;16.70;99.90;;;;;;5005935;28;20088;-67
2022/05/05 09:01:48;;;;;;;13.80;8.32;;;16.80;99.90;;;;;;5009845;28;20030;-66
2022/05/05 09:04:14;;;;;;;15.30;8.25;;;16.80;99.90;;;;;;5009054;28;20026;-65
2022/05/05 09:06:46;;;;;;;13.75;7.63;;;16.90;99.90;;;;;;5010995;28;20370;-65
2022/05/05 09:09:24;;;;;;;15.50;7.65;;;17.00;99.90;;;;;;5009038;28;20033;-65
2022/05/05 09:12:06;;;;;;;18.45;7.38;;;17.20;99.90;;;;;;5009609;28;20171;-65
2022/05/05 09:14:35;;;;;;;;;;;17.20;99.90;;;;;;5010999;28;20033;-66
2022/05/05 09:17:06;;;;;;;12.27;8.65;;;17.30;99.90;;;;;;5010453;28;19905;-67
2022/05/05 09:19:39;;;;;;;12.20;7.95;;;17.20;99.90;;;;;;5010091;28;20065;-67
2022/05/05 09:22:06;;;;;;;16.00;9.63;;;17.40;99.90;;;;;;5008785;28;20160;-66
2022/05/05 09:24:35;;;;;;;14.80;8.32;;;17.50;99.90;;;;;;5010978;28;20030;-66
2022/05/05 09:27:24;;;;;;;14.90;8.90;;;17.50;99.90;;;;;;5004016;28;20332;-66
2022/05/05 09:30:10;;;;;;;14.20;8.30;;;17.50;99.90;;;;;;5010793;28;20041;-65
2022/05/05 09:32:38;;;;;;;13.77;8.25;;;17.70;99.90;;;;;;5010671;28;20037;-65
2022/05/05 09:35:24;;;;;;;10.70;7.30;;;17.70;99.90;;;;;;5007625;28;20084;-66
2022/05/05 09:37:52;;;;;;;10.52;7.00;;;17.60;99.90;;;;;;5000467;28;20045;-66
2022/05/05 09:40:22;;;;;;;12.15;8.18;;;17.70;99.90;;;;;;5014185;28;20064;-65
2022/05/05 09:42:52;;;;;;;14.45;7.95;;;17.70;99.90;;;;;;5014364;28;20029;-67
2022/05/05 09:45:23;;;;;;;15.85;8.50;;;17.80;99.90;;;;;;5012029;28;20443;-66
2022/05/05 09:47:49;;;;;;;12.15;7.05;;;17.70;99.70;;;;;;5003426;28;20026;-66
2022/05/05 09:50:17;;;;;;;19.48;7.88;;;17.80;99.70;;;;;;5013625;28;20053;-67
2022/05/05 09:58:21;;;;;;;15.93;8.38;;;18.00;99.40;;;;;;5013504;28;20121;-65
2022/05/05 10:01:05;;;;;;;11.75;8.07;;;18.00;99.20;;;;;;5014330;28;20025;-66
2022/05/05 10:04:00;;;;;;;23.25;8.77;;;17.80;98.90;;;;;;5012809;28;20467;-66
2022/05/05 10:06:40;;;;;;;12.40;7.90;;;18.00;98.80;;;;;;5012590;28;20030;-66
2022/05/05 10:09:09;;;;;;;14.68;7.88;;;18.00;98.90;;;;;;5013172;28;20037;-67
2022/05/05 10:11:35;;;;;;;13.98;7.40;;;18.10;98.50;;;;;;5012609;28;20349;-66
2022/05/05 10:14:04;;;;;;;14.25;7.28;;;17.90;98.60;;;;;;5012186;28;20026;-65
2022/05/05 10:16:31;;;;;;;13.00;8.32;;;18.00;98.50;;;;;;5014185;28;20022;-66
2022/05/05 10:19:00;;;;;;;19.40;8.40;;;17.90;98.30;;;;;;5013189;28;20140;-67
2022/05/05 10:21:35;;;;;;;13.32;8.00;;;17.90;98.40;;;;;;5013948;28;20030;-66
2022/05/05 10:24:32;;;;;;;11.27;7.18;;;18.00;98.40;;;;;;5013216;28;20030;-67
2022/05/05 10:27:02;;;;;;;15.63;8.10;;;18.00;98.50;;;;;;5011166;28;20108;-65
2022/05/05 10:29:31;;;;;;;13.15;7.60;;;18.00;98.80;;;;;;5013176;28;20092;-65
2022/05/05 10:32:07;;;;;;;17.38;7.88;;;17.90;98.60;;;;;;5012654;28;20065;-67
2022/05/05 10:34:33;;;;;;;15.02;8.10;;;18.10;97.90;;;;;;5011802;28;20128;-66
2022/05/05 10:37:04;;;;;;;12.00;7.30;;;18.00;98.00;;;;;;5013058;28;20026;-65
2022/05/05 10:39:44;;;;;;;13.30;7.88;;;18.10;98.10;;;;;;5013321;28;20036;-66
2022/05/05 10:42:14;;;;;;;12.35;7.18;;;18.10;97.80;;;;;;5012929;28;20038;-66
2022/05/05 10:45:16;;;;;;;16.38;7.72;;;18.10;97.70;;;;;;5013037;28;20109;-66
2022/05/05 10:47:47;;;;;;;;;;;18.10;97.90;;;;;;5010668;28;20045;-65
2022/05/05 10:50:29;;;;;;;;;;;18.10;98.10;;;;;;5012937;28;19919;-66
2022/05/05 10:52:55;;;;;;;12.18;6.97;;;18.10;97.80;;;;;;5012852;28;19931;-66
2022/05/05 10:55:32;;;;;;;14.70;7.88;;;18.20;97.80;;;;;;5010474;28;20088;-64
2022/05/05 10:57:58;;;;;;;15.77;8.05;;;18.30;97.80;;;;;;5012472;28;20126;-67
2022/05/05 11:00:36;;;;;;;20.08;8.27;;;18.10;98.20;;;;;;5013104;28;20112;-66
2022/05/05 11:03:09;;;;;;;12.55;7.82;;;18.00;98.20;;;;;;5012236;28;20061;-65
2022/05/05 11:05:38;;;;;;;27.42;9.30;;;18.00;98.10;;;;;;5011405;28;20022;-65
2022/05/05 11:08:10;;;;;;;16.00;8.63;;;17.90;98.20;;;;;;5010734;28;20370;-67
2022/05/05 11:10:46;;;;;;;11.32;7.55;;;18.00;98.30;;;;;;5011189;28;20030;-67
2022/05/05 11:13:35;;;;;;;12.93;7.38;;;18.20;98.20;;;;;;5010175;28;20129;-66
2022/05/05 11:22:17;;;;;;;15.27;8.00;;;18.40;97.40;;;;;;5011922;28;20125;-66
2022/05/05 11:24:49;;;;;;;12.57;7.90;;;18.50;97.50;;;;;;5007600;28;20026;-67
2022/05/05 11:27:17;;;;;;;12.98;7.00;;;18.60;97.50;;;;;;5012116;28;20030;-67
2022/05/05 11:29:56;;;;;;;12.57;7.47;;;18.80;97.10;;;;;;5010804;28;20092;-65
2022/05/05 11:32:32;;;;;;;16.00;7.32;;;18.90;96.70;;;;;;5009794;28;20040;-66
2022/05/05 11:34:59;;;;;;;16.27;7.25;;;18.80;96.70;;;;;;4999618;28;20113;-67
2022/05/05 11:37:29;;;;;;;17.35;8.23;;;19.00;96.90;;;;;;5012160;28;20022;-65
2022/05/05 11:39:55;;;;;;;16.40;8.10;;;19.20;96.50;;;;;;5011082;28;20033;-65
2022/05/05 11:42:21;;;;;;;14.63;7.35;;;19.20;96.60;;;;;;5011330;28;20026;-66
2022/05/05 11:44:48;;;;;;;18.70;8.57;;;19.30;96.40;;;;;;5010532;28;20022;-65
2022/05/05 11:47:18;;;;;;;13.40;8.13;;;19.30;96.40;;;;;;5011312;28;20088;-65
2022/05/05 11:49:56;;;;;;;15.65;8.18;;;19.30;96.70;;;;;;5009295;28;20050;-66
2022/05/05 11:52:25;;;;;;;10.65;7.30;;;19.50;96.90;;;;;;5009666;28;20475;-66
2022/05/05 11:54:52;;;;;;;15.13;7.55;;;19.90;96.40;;;;;;5010415;28;20030;-66
2022/05/05 11:57:34;;;;;;;16.90;7.43;;;20.00;95.80;;;;;;5009431;28;20471;-66
2022/05/05 12:02:47;;;;;;;15.57;7.28;;;20.50;94.60;;;;;;4992285;28;20089;-65
2022/05/05 12:05:13;;;;;;;19.20;7.40;;;20.70;94.10;;;;;;4991680;28;20034;-65
2022/05/05 12:07:43;;;;;;;13.95;6.80;;;20.70;93.90;;;;;;4996884;28;20426;-66
2022/05/05 12:10:09;;;;;;;16.00;8.18;;;20.70;93.90;;;;;;5006644;28;20129;-65
2022/05/05 12:12:38;;;;;;;9.20;6.10;;;20.70;93.80;;;;;;5007720;28;20042;-67
2022/05/05 12:15:06;;;;;;;10.15;6.45;;;20.80;93.40;;;;;;5011264;28;20168;-66
2022/05/05 12:17:52;;;;;;;24.00;6.65;;;20.70;92.80;;;;;;5010543;28;20428;-58
2022/05/05 12:20:21;;;;;;;9.80;5.63;;;20.80;95.60;;;;;;5008745;28;20049;-66
2022/05/05 12:22:58;;;;;;;10.15;5.80;;;20.90;93.30;;;;;;5011775;28;20120;-66
2022/05/05 12:25:25;;;;;;;13.50;5.88;;;21.00;91.70;;;;;;5008786;28;20474;-67
2022/05/05 12:27:53;;;;;;;11.48;6.53;;;20.80;91.00;;;;;;5007112;28;20018;-66
2022/05/05 12:30:35;;;;;;;10.48;5.78;;;20.50;90.60;;;;;;5010228;28;20030;-67
2022/05/05 12:33:02;;;;;;;8.80;5.75;;;20.40;91.10;;;;;;5008600;28;20510;-67
2022/05/05 12:35:33;;;;;;;10.23;5.75;;;20.40;91.20;;;;;;5011020;28;20471;-67
2022/05/05 12:38:00;;;;;;;13.20;5.60;;;20.20;90.90;;;;;;5010205;28;20088;-66
2022/05/05 12:40:27;;;;;;;11.02;5.35;;;19.80;91.10;;;;;;5010706;28;20101;-67
2022/05/05 12:43:04;;;;;;;9.38;4.97;;;19.70;91.10;;;;;;5009355;28;20056;-66
2022/05/05 12:45:34;;;;;;;10.73;4.60;;;20.00;90.80;;;;;;5003466;28;20096;-66
2022/05/05 12:48:05;;;;;;;5.75;3.85;;;20.10;89.10;;;;;;5010970;28;20134;-67
2022/05/05 12:50:34;;;;;;;10.47;3.80;;;20.10;88.60;;;;;;5008974;28;20041;-65
2022/05/05 13:01:23;;;;;;;5.97;2.40;;;20.20;86.90;;;;;;5000966;28;20044;-67
2022/05/05 13:03:49;;;;;;;5.95;3.72;;;20.70;86.30;;;;;;5000750;28;20033;-67
2022/05/05 13:06:15;;;;;;;18.92;5.05;;;21.10;86.50;;;;;;5008606;28;20076;-67
2022/05/05 13:08:41;;;;;;;5.97;3.70;;;21.40;85.90;;;;;;5010797;28;20383;-67
2022/05/05 13:11:06;;;;;;;9.07;4.07;;;22.00;84.90;;;;;;5014204;28;20026;-67
2022/05/05 13:13:32;;;;;;;5.85;3.60;;;22.80;83.90;;;;;;5011691;28;20599;-65
2022/05/05 13:15:58;;;;;;;9.18;3.25;;;23.10;82.00;;;;;;5012704;28;20502;-67
2022/05/05 13:18:24;;;;;;;4.32;2.40;;;22.80;81.30;;;;;;5013511;28;20050;-65
2022/05/05 13:20:49;;;;;;;4.90;2.25;;;22.80;81.10;;;;;;5012540;28;20041;-66
2022/05/05 13:23:15;;;;;;;8.60;2.97;;;22.80;78.70;;;;;;5013927;28;20034;-66
2022/05/05 13:25:41;;;;;;;8.02;3.47;;;22.40;79.10;;;;;;5014052;28;20030;-65
2022/05/05 13:28:07;;;;;;;7.25;3.10;;;22.40;77.80;;;;;;5014013;28;20471;-68
2022/05/05 13:30:33;;;;;;;6.13;3.03;;;22.10;77.30;;;;;;5014575;28;20098;-66
2022/05/05 13:32:59;;;;;;;7.95;3.60;;;21.30;80.60;;;;;;5014226;28;20075;-66